sensor_id;sensor_type;location;lat;lon;timestamp;P1;durP1;ratioP1;P2;durP2;ratioP2
5475;SDS011;2760;50.000;9.194;2023-07-24T00:00:14;3.20;;;2.87;;
5475;SDS011;2760;50.000;9.194;2023-07-24T00:02:41;6.37;;;3.60;;
5475;SDS011;2760;50.000;9.194;2023-07-24T00:05:08;5.87;;;3.17;;
5475;SDS011;2760;50.000;9.194;2023-07-24T00:07:36;4.80;;;3.77;;
5475;SDS011;2760;50.000;9.194;2023-07-24T00:10:03;3.60;;;3.30;;
5475;SDS011;2760;50.000;9.194;2023-07-24T00:12:32;5.90;;;3.37;;
5475;SDS011;2760;50.000;9.194;2023-07-24T00:14:59;4.13;;;3.17;;
5475;SDS011;2760;50.000;9.194;2023-07-24T00:17:26;3.67;;;3.20;;
5475;SDS011;2760;50.000;9.194;2023-07-24T00:19:53;7.47;;;3.70;;
5475;SDS011;2760;50.000;9.194;2023-07-24T00:22:20;4.30;;;3.40;;
5475;SDS011;2760;50.000;9.194;2023-07-24T00:24:47;5.33;;;3.73;;
5475;SDS011;2760;50.000;9.194;2023-07-24T00:27:14;4.40;;;3.67;;
5475;SDS011;2760;50.000;9.194;2023-07-24T00:29:42;3.90;;;3.50;;
5475;SDS011;2760;50.000;9.194;2023-07-24T00:32:09;4.77;;;3.33;;
5475;SDS011;2760;50.000;9.194;2023-07-24T00:34:36;7.50;;;3.40;;
5475;SDS011;2760;50.000;9.194;2023-07-24T00:37:03;6.40;;;3.33;;
5475;SDS011;2760;50.000;9.194;2023-07-24T00:39:31;4.90;;;3.50;;
5475;SDS011;2760;50.000;9.194;2023-07-24T00:41:58;6.07;;;3.77;;
5475;SDS011;2760;50.000;9.194;2023-07-24T00:44:25;6.53;;;3.67;;
5475;SDS011;2760;50.000;9.194;2023-07-24T00:46:54;4.63;;;4.10;;
5475;SDS011;2760;50.000;9.194;2023-07-24T00:49:21;4.70;;;3.90;;
5475;SDS011;2760;50.000;9.194;2023-07-24T00:51:48;6.60;;;3.63;;
5475;SDS011;2760;50.000;9.194;2023-07-24T00:54:16;4.03;;;3.47;;
5475;SDS011;2760;50.000;9.194;2023-07-24T00:56:45;3.80;;;3.27;;
5475;SDS011;2760;50.000;9.194;2023-07-24T00:59:13;6.20;;;4.17;;
5475;SDS011;2760;50.000;9.194;2023-07-24T01:01:41;4.40;;;2.87;;
5475;SDS011;2760;50.000;9.194;2023-07-24T01:04:10;4.80;;;3.80;;
5475;SDS011;2760;50.000;9.194;2023-07-24T01:06:37;4.50;;;3.20;;
5475;SDS011;2760;50.000;9.194;2023-07-24T01:09:04;4.83;;;3.43;;
5475;SDS011;2760;50.000;9.194;2023-07-24T01:11:33;4.33;;;3.90;;
5475;SDS011;2760;50.000;9.194;2023-07-24T01:14:04;4.77;;;3.83;;
5475;SDS011;2760;50.000;9.194;2023-07-24T01:16:36;5.30;;;4.10;;
5475;SDS011;2760;50.000;9.194;2023-07-24T01:19:08;6.30;;;4.00;;
5475;SDS011;2760;50.000;9.194;2023-07-24T01:21:44;4.97;;;4.13;;
5475;SDS011;2760;50.000;9.194;2023-07-24T01:24:23;4.93;;;4.20;;
5475;SDS011;2760;50.000;9.194;2023-07-24T01:26:58;4.70;;;3.77;;
5475;SDS011;2760;50.000;9.194;2023-07-24T01:29:25;4.77;;;3.97;;
5475;SDS011;2760;50.000;9.194;2023-07-24T01:31:52;3.67;;;3.33;;
5475;SDS011;2760;50.000;9.194;2023-07-24T01:34:19;4.20;;;3.80;;
5475;SDS011;2760;50.000;9.194;2023-07-24T01:36:46;7.10;;;3.97;;
5475;SDS011;2760;50.000;9.194;2023-07-24T01:39:14;6.70;;;3.40;;
5475;SDS011;2760;50.000;9.194;2023-07-24T01:41:42;6.00;;;3.67;;
5475;SDS011;2760;50.000;9.194;2023-07-24T01:44:10;6.17;;;3.60;;
5475;SDS011;2760;50.000;9.194;2023-07-24T01:46:38;4.30;;;3.90;;
5475;SDS011;2760;50.000;9.194;2023-07-24T01:49:05;4.53;;;3.90;;
5475;SDS011;2760;50.000;9.194;2023-07-24T01:51:33;6.60;;;3.77;;
5475;SDS011;2760;50.000;9.194;2023-07-24T01:54:00;4.20;;;3.80;;
5475;SDS011;2760;50.000;9.194;2023-07-24T01:56:27;6.27;;;3.50;;
5475;SDS011;2760;50.000;9.194;2023-07-24T01:58:54;6.83;;;3.60;;
5475;SDS011;2760;50.000;9.194;2023-07-24T02:01:22;5.47;;;3.60;;
5475;SDS011;2760;50.000;9.194;2023-07-24T02:03:50;5.43;;;4.00;;
5475;SDS011;2760;50.000;9.194;2023-07-24T02:06:16;8.40;;;3.93;;
5475;SDS011;2760;50.000;9.194;2023-07-24T02:08:43;4.27;;;3.90;;
5475;SDS011;2760;50.000;9.194;2023-07-24T02:11:14;6.60;;;4.07;;
5475;SDS011;2760;50.000;9.194;2023-07-24T02:13:42;4.90;;;3.60;;
5475;SDS011;2760;50.000;9.194;2023-07-24T02:16:10;4.57;;;3.63;;
5475;SDS011;2760;50.000;9.194;2023-07-24T02:18:40;6.43;;;4.20;;
5475;SDS011;2760;50.000;9.194;2023-07-24T02:21:08;5.47;;;3.93;;
5475;SDS011;2760;50.000;9.194;2023-07-24T02:23:35;4.13;;;3.53;;
5475;SDS011;2760;50.000;9.194;2023-07-24T02:26:03;4.70;;;3.43;;
5475;SDS011;2760;50.000;9.194;2023-07-24T02:28:33;5.33;;;3.53;;
5475;SDS011;2760;50.000;9.194;2023-07-24T02:31:00;5.30;;;3.53;;
5475;SDS011;2760;50.000;9.194;2023-07-24T02:33:28;6.67;;;4.40;;
5475;SDS011;2760;50.000;9.194;2023-07-24T02:35:56;6.83;;;4.33;;
5475;SDS011;2760;50.000;9.194;2023-07-24T02:38:23;7.53;;;4.57;;
5475;SDS011;2760;50.000;9.194;2023-07-24T02:40:50;5.80;;;3.53;;
5475;SDS011;2760;50.000;9.194;2023-07-24T02:43:17;6.77;;;4.67;;
5475;SDS011;2760;50.000;9.194;2023-07-24T02:45:44;9.20;;;4.93;;
5475;SDS011;2760;50.000;9.194;2023-07-24T02:48:11;6.50;;;3.67;;
5475;SDS011;2760;50.000;9.194;2023-07-24T02:50:38;5.67;;;4.53;;
5475;SDS011;2760;50.000;9.194;2023-07-24T02:53:07;4.97;;;4.47;;
5475;SDS011;2760;50.000;9.194;2023-07-24T02:55:34;7.30;;;4.17;;
5475;SDS011;2760;50.000;9.194;2023-07-24T02:58:01;6.77;;;4.33;;
5475;SDS011;2760;50.000;9.194;2023-07-24T03:00:28;5.37;;;4.20;;
5475;SDS011;2760;50.000;9.194;2023-07-24T03:02:55;6.40;;;4.67;;
5475;SDS011;2760;50.000;9.194;2023-07-24T03:05:22;6.33;;;4.63;;
5475;SDS011;2760;50.000;9.194;2023-07-24T03:07:49;5.90;;;4.50;;
5475;SDS011;2760;50.000;9.194;2023-07-24T03:10:17;5.73;;;4.13;;
5475;SDS011;2760;50.000;9.194;2023-07-24T03:12:45;6.57;;;4.83;;
5475;SDS011;2760;50.000;9.194;2023-07-24T03:15:12;5.13;;;4.40;;
5475;SDS011;2760;50.000;9.194;2023-07-24T03:17:39;6.27;;;4.90;;
5475;SDS011;2760;50.000;9.194;2023-07-24T03:20:09;6.10;;;4.70;;
5475;SDS011;2760;50.000;9.194;2023-07-24T03:22:40;5.57;;;3.80;;
5475;SDS011;2760;50.000;9.194;2023-07-24T03:25:07;5.80;;;4.50;;
5475;SDS011;2760;50.000;9.194;2023-07-24T03:27:36;7.30;;;4.40;;
5475;SDS011;2760;50.000;9.194;2023-07-24T03:30:04;6.97;;;4.00;;
5475;SDS011;2760;50.000;9.194;2023-07-24T03:32:31;7.43;;;3.97;;
5475;SDS011;2760;50.000;9.194;2023-07-24T03:35:01;6.40;;;4.60;;
5475;SDS011;2760;50.000;9.194;2023-07-24T03:37:28;6.60;;;3.90;;
5475;SDS011;2760;50.000;9.194;2023-07-24T03:39:55;4.67;;;4.23;;
5475;SDS011;2760;50.000;9.194;2023-07-24T03:42:26;6.70;;;4.27;;
5475;SDS011;2760;50.000;9.194;2023-07-24T03:44:56;6.23;;;5.23;;
5475;SDS011;2760;50.000;9.194;2023-07-24T03:47:25;5.60;;;4.40;;
5475;SDS011;2760;50.000;9.194;2023-07-24T03:49:52;5.97;;;4.20;;
5475;SDS011;2760;50.000;9.194;2023-07-24T03:52:20;5.57;;;4.37;;
5475;SDS011;2760;50.000;9.194;2023-07-24T03:54:47;6.30;;;4.20;;
5475;SDS011;2760;50.000;9.194;2023-07-24T03:57:14;5.10;;;4.07;;
5475;SDS011;2760;50.000;9.194;2023-07-24T03:59:41;7.93;;;4.20;;
5475;SDS011;2760;50.000;9.194;2023-07-24T04:02:09;6.57;;;4.37;;
5475;SDS011;2760;50.000;9.194;2023-07-24T04:04:37;6.70;;;4.60;;
5475;SDS011;2760;50.000;9.194;2023-07-24T04:07:04;7.47;;;4.47;;
5475;SDS011;2760;50.000;9.194;2023-07-24T04:09:32;14.33;;;4.53;;
5475;SDS011;2760;50.000;9.194;2023-07-24T04:12:00;6.90;;;4.83;;
5475;SDS011;2760;50.000;9.194;2023-07-24T04:14:28;6.17;;;4.00;;
5475;SDS011;2760;50.000;9.194;2023-07-24T04:16:55;7.23;;;4.70;;
5475;SDS011;2760;50.000;9.194;2023-07-24T04:19:24;6.13;;;4.23;;
5475;SDS011;2760;50.000;9.194;2023-07-24T04:21:51;11.00;;;7.40;;
5475;SDS011;2760;50.000;9.194;2023-07-24T04:24:18;6.30;;;5.30;;
5475;SDS011;2760;50.000;9.194;2023-07-24T04:26:45;6.37;;;4.27;;
5475;SDS011;2760;50.000;9.194;2023-07-24T04:29:12;7.70;;;5.30;;
5475;SDS011;2760;50.000;9.194;2023-07-24T04:31:39;5.80;;;4.53;;
5475;SDS011;2760;50.000;9.194;2023-07-24T04:34:06;8.00;;;5.00;;
5475;SDS011;2760;50.000;9.194;2023-07-24T04:36:35;8.30;;;4.77;;
5475;SDS011;2760;50.000;9.194;2023-07-24T04:39:04;5.20;;;4.00;;
5475;SDS011;2760;50.000;9.194;2023-07-24T04:41:31;5.67;;;4.27;;
5475;SDS011;2760;50.000;9.194;2023-07-24T04:43:58;6.47;;;4.53;;
5475;SDS011;2760;50.000;9.194;2023-07-24T04:46:25;9.50;;;4.53;;
5475;SDS011;2760;50.000;9.194;2023-07-24T04:48:55;5.40;;;4.27;;
5475;SDS011;2760;50.000;9.194;2023-07-24T04:51:22;6.03;;;4.87;;
5475;SDS011;2760;50.000;9.194;2023-07-24T04:53:50;8.00;;;5.20;;
5475;SDS011;2760;50.000;9.194;2023-07-24T04:56:17;7.07;;;4.90;;
5475;SDS011;2760;50.000;9.194;2023-07-24T04:58:44;5.90;;;4.80;;
5475;SDS011;2760;50.000;9.194;2023-07-24T05:01:12;7.80;;;5.03;;
5475;SDS011;2760;50.000;9.194;2023-07-24T05:03:40;10.07;;;5.53;;
5475;SDS011;2760;50.000;9.194;2023-07-24T05:06:07;6.80;;;4.87;;
5475;SDS011;2760;50.000;9.194;2023-07-24T05:08:35;6.77;;;4.77;;
5475;SDS011;2760;50.000;9.194;2023-07-24T05:11:04;7.47;;;4.70;;
5475;SDS011;2760;50.000;9.194;2023-07-24T05:13:31;7.10;;;4.63;;
5475;SDS011;2760;50.000;9.194;2023-07-24T05:15:58;8.13;;;4.73;;
5475;SDS011;2760;50.000;9.194;2023-07-24T05:18:26;8.03;;;4.57;;
5475;SDS011;2760;50.000;9.194;2023-07-24T05:20:53;7.33;;;4.83;;
5475;SDS011;2760;50.000;9.194;2023-07-24T05:23:20;9.57;;;4.73;;
5475;SDS011;2760;50.000;9.194;2023-07-24T05:25:47;7.13;;;4.73;;
5475;SDS011;2760;50.000;9.194;2023-07-24T05:28:24;6.60;;;4.80;;
5475;SDS011;2760;50.000;9.194;2023-07-24T05:30:52;10.23;;;6.73;;
5475;SDS011;2760;50.000;9.194;2023-07-24T05:33:19;10.27;;;4.57;;
5475;SDS011;2760;50.000;9.194;2023-07-24T05:35:46;7.10;;;4.87;;
5475;SDS011;2760;50.000;9.194;2023-07-24T05:38:14;8.93;;;4.50;;
5475;SDS011;2760;50.000;9.194;2023-07-24T05:40:41;7.80;;;4.97;;
5475;SDS011;2760;50.000;9.194;2023-07-24T05:43:09;6.73;;;4.87;;
5475;SDS011;2760;50.000;9.194;2023-07-24T05:45:38;7.20;;;5.00;;
5475;SDS011;2760;50.000;9.194;2023-07-24T05:48:09;9.00;;;5.27;;
5475;SDS011;2760;50.000;9.194;2023-07-24T05:50:36;8.67;;;5.50;;
5475;SDS011;2760;50.000;9.194;2023-07-24T05:53:03;7.90;;;4.60;;
5475;SDS011;2760;50.000;9.194;2023-07-24T05:55:30;10.03;;;5.47;;
5475;SDS011;2760;50.000;9.194;2023-07-24T05:57:57;7.63;;;4.67;;
5475;SDS011;2760;50.000;9.194;2023-07-24T06:00:24;8.60;;;6.50;;
5475;SDS011;2760;50.000;9.194;2023-07-24T06:02:54;8.93;;;4.90;;
5475;SDS011;2760;50.000;9.194;2023-07-24T06:05:21;7.53;;;5.47;;
5475;SDS011;2760;50.000;9.194;2023-07-24T06:07:48;7.70;;;5.00;;
5475;SDS011;2760;50.000;9.194;2023-07-24T06:10:15;7.43;;;5.33;;
5475;SDS011;2760;50.000;9.194;2023-07-24T06:12:43;9.27;;;5.10;;
5475;SDS011;2760;50.000;9.194;2023-07-24T06:15:10;8.13;;;5.83;;
5475;SDS011;2760;50.000;9.194;2023-07-24T06:17:37;10.37;;;4.80;;
5475;SDS011;2760;50.000;9.194;2023-07-24T06:20:07;9.87;;;5.50;;
5475;SDS011;2760;50.000;9.194;2023-07-24T06:22:35;5.87;;;4.77;;
5475;SDS011;2760;50.000;9.194;2023-07-24T06:25:03;6.90;;;5.30;;
5475;SDS011;2760;50.000;9.194;2023-07-24T06:27:33;7.80;;;5.20;;
5475;SDS011;2760;50.000;9.194;2023-07-24T06:30:00;8.93;;;5.77;;
5475;SDS011;2760;50.000;9.194;2023-07-24T06:32:28;7.80;;;5.87;;
5475;SDS011;2760;50.000;9.194;2023-07-24T06:34:56;8.10;;;5.40;;
5475;SDS011;2760;50.000;9.194;2023-07-24T06:37:25;13.63;;;6.10;;
5475;SDS011;2760;50.000;9.194;2023-07-24T06:39:52;8.13;;;5.70;;
5475;SDS011;2760;50.000;9.194;2023-07-24T06:42:19;8.10;;;6.30;;
5475;SDS011;2760;50.000;9.194;2023-07-24T06:44:46;7.17;;;5.20;;
5475;SDS011;2760;50.000;9.194;2023-07-24T06:47:13;10.00;;;5.47;;
5475;SDS011;2760;50.000;9.194;2023-07-24T06:49:40;9.10;;;5.83;;
5475;SDS011;2760;50.000;9.194;2023-07-24T06:52:07;10.30;;;6.00;;
5475;SDS011;2760;50.000;9.194;2023-07-24T06:54:38;8.33;;;5.63;;
5475;SDS011;2760;50.000;9.194;2023-07-24T06:57:05;13.40;;;6.27;;
5475;SDS011;2760;50.000;9.194;2023-07-24T06:59:33;7.00;;;5.80;;
5475;SDS011;2760;50.000;9.194;2023-07-24T07:02:00;8.57;;;5.50;;
5475;SDS011;2760;50.000;9.194;2023-07-24T07:04:27;10.93;;;5.93;;
5475;SDS011;2760;50.000;9.194;2023-07-24T07:06:54;7.97;;;5.53;;
5475;SDS011;2760;50.000;9.194;2023-07-24T07:09:22;10.70;;;6.13;;
5475;SDS011;2760;50.000;9.194;2023-07-24T07:11:51;8.27;;;5.80;;
5475;SDS011;2760;50.000;9.194;2023-07-24T07:14:18;8.90;;;5.97;;
5475;SDS011;2760;50.000;9.194;2023-07-24T07:16:46;10.17;;;5.97;;
5475;SDS011;2760;50.000;9.194;2023-07-24T07:19:14;10.17;;;5.10;;
5475;SDS011;2760;50.000;9.194;2023-07-24T07:21:41;10.03;;;5.70;;
5475;SDS011;2760;50.000;9.194;2023-07-24T07:24:08;7.27;;;5.63;;
5475;SDS011;2760;50.000;9.194;2023-07-24T07:26:35;6.43;;;5.00;;
5475;SDS011;2760;50.000;9.194;2023-07-24T07:29:04;9.70;;;6.30;;
5475;SDS011;2760;50.000;9.194;2023-07-24T07:31:31;8.27;;;5.43;;
5475;SDS011;2760;50.000;9.194;2023-07-24T07:33:59;9.47;;;5.73;;
5475;SDS011;2760;50.000;9.194;2023-07-24T07:36:27;7.50;;;5.77;;
5475;SDS011;2760;50.000;9.194;2023-07-24T07:38:56;9.00;;;5.60;;
5475;SDS011;2760;50.000;9.194;2023-07-24T07:41:23;8.60;;;5.13;;
5475;SDS011;2760;50.000;9.194;2023-07-24T07:43:50;8.90;;;6.00;;
5475;SDS011;2760;50.000;9.194;2023-07-24T07:46:18;13.30;;;6.30;;
5475;SDS011;2760;50.000;9.194;2023-07-24T07:48:46;10.90;;;6.40;;
5475;SDS011;2760;50.000;9.194;2023-07-24T07:51:14;13.93;;;6.80;;
5475;SDS011;2760;50.000;9.194;2023-07-24T07:53:41;10.33;;;6.37;;
5475;SDS011;2760;50.000;9.194;2023-07-24T07:56:08;10.07;;;6.80;;
5475;SDS011;2760;50.000;9.194;2023-07-24T07:58:35;9.43;;;7.10;;
5475;SDS011;2760;50.000;9.194;2023-07-24T08:01:03;10.43;;;6.40;;
5475;SDS011;2760;50.000;9.194;2023-07-24T08:03:32;9.73;;;7.10;;
5475;SDS011;2760;50.000;9.194;2023-07-24T08:05:59;10.87;;;6.90;;
5475;SDS011;2760;50.000;9.194;2023-07-24T08:08:26;9.60;;;6.87;;
5475;SDS011;2760;50.000;9.194;2023-07-24T08:10:53;14.90;;;6.33;;
5475;SDS011;2760;50.000;9.194;2023-07-24T08:13:20;12.23;;;6.80;;
5475;SDS011;2760;50.000;9.194;2023-07-24T08:15:47;11.13;;;6.73;;
5475;SDS011;2760;50.000;9.194;2023-07-24T08:18:15;10.73;;;6.67;;
5475;SDS011;2760;50.000;9.194;2023-07-24T08:20:43;10.40;;;7.33;;
5475;SDS011;2760;50.000;9.194;2023-07-24T08:23:10;10.10;;;7.70;;
5475;SDS011;2760;50.000;9.194;2023-07-24T08:25:37;9.80;;;7.20;;
5475;SDS011;2760;50.000;9.194;2023-07-24T08:28:04;10.03;;;7.37;;
5475;SDS011;2760;50.000;9.194;2023-07-24T08:30:31;10.50;;;7.23;;
5475;SDS011;2760;50.000;9.194;2023-07-24T08:32:59;13.80;;;8.47;;
5475;SDS011;2760;50.000;9.194;2023-07-24T08:35:26;10.93;;;7.40;;
5475;SDS011;2760;50.000;9.194;2023-07-24T08:37:55;12.30;;;8.20;;
5475;SDS011;2760;50.000;9.194;2023-07-24T08:40:23;14.13;;;7.60;;
5475;SDS011;2760;50.000;9.194;2023-07-24T08:42:51;12.50;;;6.60;;
5475;SDS011;2760;50.000;9.194;2023-07-24T08:45:20;14.57;;;7.80;;
5475;SDS011;2760;50.000;9.194;2023-07-24T08:47:50;9.83;;;7.10;;
5475;SDS011;2760;50.000;9.194;2023-07-24T08:50:19;14.07;;;7.77;;
5475;SDS011;2760;50.000;9.194;2023-07-24T08:52:46;11.40;;;7.07;;
5475;SDS011;2760;50.000;9.194;2023-07-24T08:55:15;10.77;;;7.07;;
5475;SDS011;2760;50.000;9.194;2023-07-24T08:57:42;8.57;;;6.20;;
5475;SDS011;2760;50.000;9.194;2023-07-24T09:00:10;8.77;;;6.53;;
5475;SDS011;2760;50.000;9.194;2023-07-24T09:02:40;8.40;;;6.40;;
5475;SDS011;2760;50.000;9.194;2023-07-24T09:08:10;13.43;;;7.67;;
5475;SDS011;2760;50.000;9.194;2023-07-24T09:10:38;12.10;;;6.90;;
5475;SDS011;2760;50.000;9.194;2023-07-24T09:13:06;9.77;;;6.83;;
5475;SDS011;2760;50.000;9.194;2023-07-24T09:15:39;10.43;;;6.53;;
5475;SDS011;2760;50.000;9.194;2023-07-24T09:18:07;16.83;;;7.23;;
5475;SDS011;2760;50.000;9.194;2023-07-24T09:20:38;13.40;;;6.67;;
5475;SDS011;2760;50.000;9.194;2023-07-24T09:23:09;11.47;;;6.93;;
5475;SDS011;2760;50.000;9.194;2023-07-24T09:25:37;7.37;;;6.13;;
5475;SDS011;2760;50.000;9.194;2023-07-24T09:28:12;11.83;;;5.97;;
5475;SDS011;2760;50.000;9.194;2023-07-24T09:30:41;10.97;;;6.33;;
5475;SDS011;2760;50.000;9.194;2023-07-24T09:33:18;7.60;;;6.30;;
5475;SDS011;2760;50.000;9.194;2023-07-24T09:35:45;10.90;;;6.70;;
5475;SDS011;2760;50.000;9.194;2023-07-24T09:38:22;9.60;;;6.60;;
5475;SDS011;2760;50.000;9.194;2023-07-24T09:40:52;9.83;;;7.10;;
5475;SDS011;2760;50.000;9.194;2023-07-24T09:43:21;23.43;;;6.40;;
5475;SDS011;2760;50.000;9.194;2023-07-24T09:45:51;8.53;;;6.50;;
5475;SDS011;2760;50.000;9.194;2023-07-24T09:48:21;13.07;;;6.73;;
5475;SDS011;2760;50.000;9.194;2023-07-24T09:50:49;9.00;;;6.50;;
5475;SDS011;2760;50.000;9.194;2023-07-24T09:53:20;11.20;;;6.30;;
5475;SDS011;2760;50.000;9.194;2023-07-24T09:55:56;16.37;;;6.83;;
5475;SDS011;2760;50.000;9.194;2023-07-24T09:58:25;10.87;;;6.73;;
5475;SDS011;2760;50.000;9.194;2023-07-24T10:00:52;9.83;;;6.93;;
5475;SDS011;2760;50.000;9.194;2023-07-24T10:03:20;10.40;;;6.57;;
5475;SDS011;2760;50.000;9.194;2023-07-24T10:05:49;10.83;;;7.07;;
5475;SDS011;2760;50.000;9.194;2023-07-24T10:08:17;8.70;;;6.13;;
5475;SDS011;2760;50.000;9.194;2023-07-24T10:10:47;10.43;;;6.70;;
5475;SDS011;2760;50.000;9.194;2023-07-24T10:13:17;13.80;;;7.27;;
5475;SDS011;2760;50.000;9.194;2023-07-24T10:15:48;9.47;;;6.87;;
5475;SDS011;2760;50.000;9.194;2023-07-24T10:18:16;11.13;;;6.47;;
5475;SDS011;2760;50.000;9.194;2023-07-24T10:20:44;17.80;;;7.23;;
5475;SDS011;2760;50.000;9.194;2023-07-24T10:23:15;8.77;;;6.60;;
5475;SDS011;2760;50.000;9.194;2023-07-24T10:25:45;9.17;;;7.00;;
5475;SDS011;2760;50.000;9.194;2023-07-24T10:28:12;11.00;;;6.50;;
5475;SDS011;2760;50.000;9.194;2023-07-24T10:30:42;8.53;;;5.83;;
5475;SDS011;2760;50.000;9.194;2023-07-24T10:33:10;13.27;;;6.23;;
5475;SDS011;2760;50.000;9.194;2023-07-24T10:35:40;18.03;;;7.53;;
5475;SDS011;2760;50.000;9.194;2023-07-24T10:38:07;7.57;;;5.73;;
5475;SDS011;2760;50.000;9.194;2023-07-24T10:40:35;9.50;;;6.57;;
5475;SDS011;2760;50.000;9.194;2023-07-24T10:43:06;9.20;;;6.50;;
5475;SDS011;2760;50.000;9.194;2023-07-24T10:45:47;8.83;;;6.80;;
5475;SDS011;2760;50.000;9.194;2023-07-24T10:48:15;8.23;;;6.17;;
5475;SDS011;2760;50.000;9.194;2023-07-24T10:50:45;9.80;;;6.10;;
5475;SDS011;2760;50.000;9.194;2023-07-24T10:53:14;10.27;;;7.73;;
5475;SDS011;2760;50.000;9.194;2023-07-24T10:55:53;7.53;;;6.00;;
5475;SDS011;2760;50.000;9.194;2023-07-24T10:58:21;9.57;;;6.03;;
5475;SDS011;2760;50.000;9.194;2023-07-24T11:00:55;11.90;;;6.00;;
5475;SDS011;2760;50.000;9.194;2023-07-24T11:03:37;10.07;;;6.17;;
5475;SDS011;2760;50.000;9.194;2023-07-24T11:06:04;8.67;;;5.70;;
5475;SDS011;2760;50.000;9.194;2023-07-24T11:08:31;10.90;;;5.70;;
5475;SDS011;2760;50.000;9.194;2023-07-24T11:11:01;11.30;;;5.90;;
5475;SDS011;2760;50.000;9.194;2023-07-24T11:13:29;8.33;;;5.50;;
5475;SDS011;2760;50.000;9.194;2023-07-24T11:16:03;10.00;;;6.23;;
5475;SDS011;2760;50.000;9.194;2023-07-24T11:18:31;8.53;;;5.87;;
5475;SDS011;2760;50.000;9.194;2023-07-24T11:20:58;9.40;;;6.27;;
5475;SDS011;2760;50.000;9.194;2023-07-24T11:23:25;9.50;;;5.67;;
5475;SDS011;2760;50.000;9.194;2023-07-24T11:25:52;8.33;;;5.70;;
5475;SDS011;2760;50.000;9.194;2023-07-24T11:28:20;15.17;;;6.00;;
5475;SDS011;2760;50.000;9.194;2023-07-24T11:30:48;10.10;;;5.33;;
5475;SDS011;2760;50.000;9.194;2023-07-24T11:33:18;9.77;;;5.50;;
5475;SDS011;2760;50.000;9.194;2023-07-24T11:35:46;8.80;;;5.17;;
5475;SDS011;2760;50.000;9.194;2023-07-24T11:38:13;8.10;;;5.80;;
5475;SDS011;2760;50.000;9.194;2023-07-24T11:40:43;7.90;;;5.37;;
5475;SDS011;2760;50.000;9.194;2023-07-24T11:43:14;9.07;;;5.20;;
5475;SDS011;2760;50.000;9.194;2023-07-24T11:45:42;7.60;;;5.77;;
5475;SDS011;2760;50.000;9.194;2023-07-24T11:48:10;9.10;;;5.53;;
5475;SDS011;2760;50.000;9.194;2023-07-24T11:50:43;12.00;;;6.70;;
5475;SDS011;2760;50.000;9.194;2023-07-24T11:53:21;6.03;;;5.37;;
5475;SDS011;2760;50.000;9.194;2023-07-24T11:55:49;7.03;;;5.43;;
5475;SDS011;2760;50.000;9.194;2023-07-24T11:58:17;6.17;;;5.47;;
5475;SDS011;2760;50.000;9.194;2023-07-24T12:00:45;10.50;;;5.77;;
5475;SDS011;2760;50.000;9.194;2023-07-24T12:03:13;11.83;;;6.27;;
5475;SDS011;2760;50.000;9.194;2023-07-24T12:05:46;8.20;;;5.50;;
5475;SDS011;2760;50.000;9.194;2023-07-24T12:08:15;8.07;;;5.77;;
5475;SDS011;2760;50.000;9.194;2023-07-24T12:10:44;8.20;;;5.60;;
5475;SDS011;2760;50.000;9.194;2023-07-24T12:13:11;12.53;;;5.63;;
5475;SDS011;2760;50.000;9.194;2023-07-24T12:15:39;8.00;;;5.40;;
5475;SDS011;2760;50.000;9.194;2023-07-24T12:18:06;11.43;;;5.80;;
5475;SDS011;2760;50.000;9.194;2023-07-24T12:20:34;10.67;;;6.30;;
5475;SDS011;2760;50.000;9.194;2023-07-24T12:23:02;9.00;;;6.10;;
5475;SDS011;2760;50.000;9.194;2023-07-24T12:25:29;10.40;;;5.97;;
5475;SDS011;2760;50.000;9.194;2023-07-24T12:27:56;7.10;;;5.20;;
5475;SDS011;2760;50.000;9.194;2023-07-24T12:30:24;15.33;;;6.50;;
5475;SDS011;2760;50.000;9.194;2023-07-24T12:32:51;7.47;;;5.80;;
5475;SDS011;2760;50.000;9.194;2023-07-24T12:35:18;11.03;;;5.40;;
5475;SDS011;2760;50.000;9.194;2023-07-24T12:37:45;8.30;;;6.07;;
5475;SDS011;2760;50.000;9.194;2023-07-24T12:40:13;9.20;;;6.10;;
5475;SDS011;2760;50.000;9.194;2023-07-24T12:42:40;8.33;;;5.47;;
5475;SDS011;2760;50.000;9.194;2023-07-24T12:45:08;7.90;;;6.40;;
5475;SDS011;2760;50.000;9.194;2023-07-24T12:47:35;8.00;;;6.40;;
5475;SDS011;2760;50.000;9.194;2023-07-24T12:50:02;8.50;;;5.27;;
5475;SDS011;2760;50.000;9.194;2023-07-24T12:52:29;8.37;;;6.30;;
5475;SDS011;2760;50.000;9.194;2023-07-24T12:54:56;9.07;;;5.67;;
5475;SDS011;2760;50.000;9.194;2023-07-24T12:57:25;13.03;;;6.20;;
5475;SDS011;2760;50.000;9.194;2023-07-24T12:59:52;9.63;;;6.10;;
5475;SDS011;2760;50.000;9.194;2023-07-24T13:02:20;7.33;;;5.90;;
5475;SDS011;2760;50.000;9.194;2023-07-24T13:04:47;11.30;;;6.30;;
5475;SDS011;2760;50.000;9.194;2023-07-24T13:07:14;7.60;;;5.20;;
5475;SDS011;2760;50.000;9.194;2023-07-24T13:09:41;9.00;;;5.63;;
5475;SDS011;2760;50.000;9.194;2023-07-24T13:12:08;9.03;;;6.00;;
5475;SDS011;2760;50.000;9.194;2023-07-24T13:14:38;14.57;;;5.83;;
5475;SDS011;2760;50.000;9.194;2023-07-24T13:17:05;8.20;;;6.30;;
5475;SDS011;2760;50.000;9.194;2023-07-24T13:19:33;14.00;;;6.27;;
5475;SDS011;2760;50.000;9.194;2023-07-24T13:22:00;19.57;;;7.57;;
5475;SDS011;2760;50.000;9.194;2023-07-24T13:24:27;11.70;;;6.47;;
5475;SDS011;2760;50.000;9.194;2023-07-24T13:26:54;10.40;;;6.00;;
5475;SDS011;2760;50.000;9.194;2023-07-24T13:29:21;6.77;;;5.63;;
5475;SDS011;2760;50.000;9.194;2023-07-24T13:31:50;6.50;;;5.60;;
5475;SDS011;2760;50.000;9.194;2023-07-24T13:34:18;6.60;;;5.50;;
5475;SDS011;2760;50.000;9.194;2023-07-24T13:36:45;11.23;;;5.57;;
5475;SDS011;2760;50.000;9.194;2023-07-24T13:39:12;18.87;;;7.27;;
5475;SDS011;2760;50.000;9.194;2023-07-24T13:41:39;8.53;;;5.43;;
5475;SDS011;2760;50.000;9.194;2023-07-24T13:44:06;8.07;;;6.40;;
5475;SDS011;2760;50.000;9.194;2023-07-24T13:46:33;9.03;;;5.73;;
5475;SDS011;2760;50.000;9.194;2023-07-24T13:49:03;9.00;;;6.03;;
5475;SDS011;2760;50.000;9.194;2023-07-24T13:51:31;12.60;;;6.40;;
5475;SDS011;2760;50.000;9.194;2023-07-24T13:53:57;8.40;;;5.77;;
5475;SDS011;2760;50.000;9.194;2023-07-24T13:56:26;10.00;;;6.20;;
5475;SDS011;2760;50.000;9.194;2023-07-24T13:58:55;9.30;;;5.37;;
5475;SDS011;2760;50.000;9.194;2023-07-24T14:01:23;9.83;;;6.53;;
5475;SDS011;2760;50.000;9.194;2023-07-24T14:03:50;8.37;;;6.30;;
5475;SDS011;2760;50.000;9.194;2023-07-24T14:06:18;12.33;;;6.37;;
5475;SDS011;2760;50.000;9.194;2023-07-24T14:08:45;10.43;;;6.60;;
5475;SDS011;2760;50.000;9.194;2023-07-24T14:11:13;10.33;;;6.00;;
5475;SDS011;2760;50.000;9.194;2023-07-24T14:13:41;11.53;;;5.87;;
5475;SDS011;2760;50.000;9.194;2023-07-24T14:16:10;9.60;;;6.10;;
5475;SDS011;2760;50.000;9.194;2023-07-24T14:18:37;11.33;;;6.50;;
5475;SDS011;2760;50.000;9.194;2023-07-24T14:21:04;12.10;;;6.20;;
5475;SDS011;2760;50.000;9.194;2023-07-24T14:23:32;8.17;;;6.00;;
5475;SDS011;2760;50.000;9.194;2023-07-24T14:25:59;9.33;;;5.63;;
5475;SDS011;2760;50.000;9.194;2023-07-24T14:28:27;8.30;;;6.00;;
5475;SDS011;2760;50.000;9.194;2023-07-24T14:30:54;14.23;;;7.00;;
5475;SDS011;2760;50.000;9.194;2023-07-24T14:33:21;8.27;;;5.90;;
5475;SDS011;2760;50.000;9.194;2023-07-24T14:35:48;14.87;;;7.03;;
5475;SDS011;2760;50.000;9.194;2023-07-24T14:38:15;18.33;;;7.07;;
5475;SDS011;2760;50.000;9.194;2023-07-24T14:40:44;9.50;;;6.80;;
5475;SDS011;2760;50.000;9.194;2023-07-24T14:43:12;9.47;;;6.20;;
5475;SDS011;2760;50.000;9.194;2023-07-24T14:45:42;11.73;;;7.83;;
5475;SDS011;2760;50.000;9.194;2023-07-24T14:48:10;9.83;;;6.93;;
5475;SDS011;2760;50.000;9.194;2023-07-24T14:50:38;9.80;;;7.27;;
5475;SDS011;2760;50.000;9.194;2023-07-24T14:53:06;11.67;;;7.50;;
5475;SDS011;2760;50.000;9.194;2023-07-24T14:55:48;10.00;;;7.30;;
5475;SDS011;2760;50.000;9.194;2023-07-24T14:58:16;9.60;;;7.00;;
5475;SDS011;2760;50.000;9.194;2023-07-24T15:00:43;10.73;;;7.30;;
5475;SDS011;2760;50.000;9.194;2023-07-24T15:03:11;12.13;;;7.37;;
5475;SDS011;2760;50.000;9.194;2023-07-24T15:05:39;15.03;;;7.37;;
5475;SDS011;2760;50.000;9.194;2023-07-24T15:08:10;9.17;;;6.73;;
5475;SDS011;2760;50.000;9.194;2023-07-24T15:10:37;10.57;;;6.73;;
5475;SDS011;2760;50.000;9.194;2023-07-24T15:13:05;9.30;;;6.90;;
5475;SDS011;2760;50.000;9.194;2023-07-24T15:15:33;10.23;;;7.13;;
5475;SDS011;2760;50.000;9.194;2023-07-24T15:18:00;8.23;;;6.70;;
5475;SDS011;2760;50.000;9.194;2023-07-24T15:20:27;8.83;;;6.60;;